Alto Palena, Chile

10:55 AM CLT on February 10, 2016 (GMT -0300)
Alto Palena Airport | | Change Station
CLOSE
Current Station
Airport
Location: Alto Palena Airport,
Elevation: 909 ft
Nearby Weather Stations

Elev 909 ft 43.62 °S, 71.78 °W | Updated 55 minutes ago

Clear
Clear
55 °F
Feels Like 55 °F
N
10
Wind Variable Wind from West

Today
High -- | Low -- °F
--% Chance of Precip.
Yesterday
High -- | Low -- °F
Precip. -- in
Pressure 30.27 in
Visibility -9999.0 miles
Clouds
Dew Point 46 °F
Humidity 72%
Rainfall 0.00 in
Snow Depth Not available.
6:59 AM 9:02 PM
Waxing Crescent, 5% visible
METAR SCAP 101300Z 27009KT CAVOK 13/08 Q1025
Pressure 30.27 in
Visibility -9999.0 miles
Clouds
Dew Point 46 °F
Humidity 72%
Rainfall 0.00 in
Snow Depth Not available.
6:59 AM 9:02 PM
Waxing Crescent, 5% visible
METAR SCAP 101300Z 27009KT CAVOK 13/08 Q1025

10-Day Weather Forecast

No radar image for this location.
×

Almanac

Astronomy

Feb. 10, 2016 Rise Set
Actual Time
Civil Twilight
Nautical Twilight
Astronomical Twilight
Moon
Length of Visible Light
Length of Day
Tomorrow will be .
, % of the Moon is Illuminated

Today's Extremes

Country Highs Country Lows

Community

WunderPhotos

Upload Photos

1,891,845 photos uploaded!

WunderBlog® & News

Nearby

Air Quality

  Air Quality AQ Index Pollutant
Not available.

Snow Depth

Station Depth Elevation

Earthquake Activity

City Distance Mag. Time & Date
Minimum magnitude displayed is 2.5.

Coastal Water Temperatures

Place Temperature

Stations

Nearby Weather Stations

Station Location Temp. Windchill Dew Point Humidity Wind Precip. Elev Updated Type